createdAt,value
2022-10-23T00:01:35.986Z,11.70
2022-10-23T00:04:13.000Z,11.60
2022-10-23T00:06:39.931Z,11.60
2022-10-23T00:09:09.048Z,11.60
2022-10-23T00:11:36.533Z,11.60
2022-10-23T00:14:06.168Z,11.60
2022-10-23T00:16:33.633Z,11.60
2022-10-23T00:19:00.513Z,11.60
2022-10-23T00:21:27.796Z,11.60
2022-10-23T00:23:54.656Z,11.60
2022-10-23T00:26:21.562Z,11.50
2022-10-23T00:28:50.693Z,11.50
2022-10-23T00:31:18.665Z,11.60
2022-10-23T00:33:45.631Z,11.50
2022-10-23T00:36:15.495Z,11.50
2022-10-23T00:38:42.463Z,11.50
2022-10-23T00:41:14.764Z,11.40
2022-10-23T00:43:58.524Z,11.40
2022-10-23T00:46:25.718Z,11.40
2022-10-23T00:48:52.751Z,11.50
2022-10-23T00:51:19.853Z,11.40
2022-10-23T00:54:01.069Z,11.40
2022-10-23T00:56:40.495Z,11.40
2022-10-23T00:59:07.863Z,11.40
2022-10-23T01:01:34.851Z,11.30
2022-10-23T01:04:03.747Z,11.40
2022-10-23T01:06:52.840Z,11.40
2022-10-23T01:09:34.933Z,11.40
2022-10-23T01:12:24.526Z,11.40
2022-10-23T01:15:00.521Z,11.30
2022-10-23T01:17:44.852Z,11.30
2022-10-23T01:20:29.850Z,11.30
2022-10-23T01:23:28.886Z,11.30
2022-10-23T01:26:13.721Z,11.30
2022-10-23T01:28:55.854Z,11.30
2022-10-23T01:31:30.844Z,11.30
2022-10-23T01:34:09.812Z,11.30
2022-10-23T01:36:41.390Z,11.20
2022-10-23T01:39:14.993Z,11.20
2022-10-23T01:41:48.654Z,11.30
2022-10-23T01:44:57.392Z,11.20
2022-10-23T01:47:28.425Z,11.10
2022-10-23T01:49:57.928Z,11.20
2022-10-23T01:52:24.990Z,11.10
2022-10-23T01:54:55.102Z,11.10
2022-10-23T01:57:23.628Z,11.10
2022-10-23T01:59:56.948Z,11.00
2022-10-23T02:02:27.128Z,11.10
2022-10-23T02:05:12.118Z,11.00
2022-10-23T02:07:39.225Z,11.00
2022-10-23T02:10:08.028Z,11.00
2022-10-23T02:12:40.811Z,11.10
2022-10-23T02:15:07.543Z,11.00
2022-10-23T02:18:02.908Z,11.00
2022-10-23T02:20:42.057Z,11.00
2022-10-23T02:23:32.706Z,11.00
2022-10-23T02:26:28.716Z,11.00
2022-10-23T02:29:18.295Z,10.90
2022-10-23T02:31:45.636Z,10.90
2022-10-23T02:34:12.417Z,10.80
2022-10-23T02:36:39.427Z,10.70
2022-10-23T02:39:06.258Z,10.80
2022-10-23T02:41:58.216Z,10.80
2022-10-23T02:44:55.944Z,10.80
2022-10-23T02:47:37.780Z,10.80
2022-10-23T02:50:18.554Z,10.80
2022-10-23T02:53:07.421Z,10.70
2022-10-23T02:55:50.743Z,10.70
2022-10-23T02:58:42.988Z,10.70
2022-10-23T03:01:15.049Z,10.70
2022-10-23T03:03:53.034Z,10.70
2022-10-23T03:06:20.707Z,10.70
2022-10-23T03:08:58.995Z,10.70
2022-10-23T03:11:26.072Z,10.70
2022-10-23T03:13:53.078Z,10.70
2022-10-23T03:16:19.943Z,10.70
2022-10-23T03:18:46.739Z,10.70
2022-10-23T03:21:13.508Z,10.70
2022-10-23T03:23:40.311Z,10.70
2022-10-23T03:26:07.160Z,10.60
2022-10-23T03:28:35.454Z,10.60
2022-10-23T03:31:03.169Z,10.60
2022-10-23T03:33:31.357Z,10.60
2022-10-23T03:35:58.476Z,10.60
2022-10-23T03:38:25.424Z,10.60
2022-10-23T03:40:52.237Z,10.60
2022-10-23T03:43:19.942Z,10.60
2022-10-23T03:45:46.708Z,10.60
2022-10-23T03:48:13.656Z,10.60
2022-10-23T03:50:40.553Z,10.50
2022-10-23T03:53:07.388Z,10.50
2022-10-23T03:55:34.154Z,10.50
2022-10-23T03:58:00.930Z,10.50
2022-10-23T04:00:27.802Z,10.50
2022-10-23T04:02:54.579Z,10.50
2022-10-23T04:05:21.410Z,10.50
2022-10-23T04:07:48.268Z,10.50
2022-10-23T04:10:15.048Z,10.50
2022-10-23T04:12:42.287Z,10.60
2022-10-23T04:15:09.543Z,10.40
2022-10-23T04:17:36.419Z,10.50
2022-10-23T04:20:03.616Z,10.40
2022-10-23T04:22:30.381Z,10.40
2022-10-23T04:24:57.211Z,10.50
2022-10-23T04:27:23.996Z,10.40
2022-10-23T04:29:52.359Z,10.50
2022-10-23T04:32:21.248Z,10.40
2022-10-23T04:34:48.002Z,10.50
2022-10-23T04:37:14.791Z,10.60
2022-10-23T04:39:41.584Z,10.40
2022-10-23T04:42:08.383Z,10.40
2022-10-23T04:44:35.196Z,10.40
2022-10-23T04:47:01.975Z,10.40
2022-10-23T04:49:28.780Z,10.50
2022-10-23T04:51:55.549Z,10.40
2022-10-23T04:54:22.311Z,10.40
2022-10-23T04:56:49.073Z,10.40
2022-10-23T04:59:15.838Z,10.50
2022-10-23T05:01:42.708Z,10.40
2022-10-23T05:04:09.830Z,10.40
2022-10-23T05:06:36.569Z,10.40
2022-10-23T05:09:04.023Z,10.40
2022-10-23T05:11:30.765Z,10.40
2022-10-23T05:13:57.710Z,10.40
2022-10-23T05:17:13.712Z,10.40
2022-10-23T05:19:45.847Z,10.40
2022-10-23T05:22:13.912Z,10.40
2022-10-23T05:24:40.708Z,10.40
2022-10-23T05:27:07.523Z,10.30
2022-10-23T05:29:34.298Z,10.30
2022-10-23T05:32:04.989Z,10.30
2022-10-23T05:34:34.545Z,10.40
2022-10-23T05:37:02.820Z,10.40
2022-10-23T05:39:29.844Z,10.30
2022-10-23T05:41:56.587Z,10.30
2022-10-23T05:44:23.352Z,10.30
2022-10-23T05:46:50.187Z,10.30
2022-10-23T05:49:17.136Z,10.30
2022-10-23T05:51:43.906Z,10.30
2022-10-23T05:54:10.774Z,10.40
2022-10-23T05:56:41.513Z,10.40
2022-10-23T05:59:08.808Z,10.30
2022-10-23T06:01:36.205Z,10.30
2022-10-23T06:04:04.264Z,10.30
2022-10-23T06:06:31.528Z,10.30
2022-10-23T06:08:58.439Z,10.30
2022-10-23T06:11:25.288Z,10.30
2022-10-23T06:13:52.183Z,10.30
2022-10-23T06:16:21.863Z,10.30
2022-10-23T06:18:48.870Z,10.30
2022-10-23T06:21:15.985Z,10.30
2022-10-23T06:23:44.752Z,10.30
2022-10-23T06:26:13.709Z,10.30
2022-10-23T06:28:41.053Z,10.30
2022-10-23T06:31:09.918Z,10.40
2022-10-23T06:33:37.125Z,10.30
2022-10-23T06:36:05.558Z,10.40
2022-10-23T06:38:37.487Z,10.40
2022-10-23T06:41:05.236Z,10.40
2022-10-23T06:43:31.999Z,10.40
2022-10-23T06:46:04.331Z,10.40
2022-10-23T06:48:32.152Z,10.50
2022-10-23T06:50:59.796Z,10.40
2022-10-23T06:53:26.645Z,10.50
2022-10-23T06:55:58.499Z,10.50
2022-10-23T06:58:25.883Z,10.60
2022-10-23T07:00:53.227Z,10.50
2022-10-23T07:03:20.099Z,10.50
2022-10-23T07:05:49.656Z,10.70
2022-10-23T07:08:16.864Z,10.60
2022-10-23T07:10:48.100Z,10.60
2022-10-23T07:13:14.953Z,10.60
2022-10-23T07:15:41.812Z,10.70
2022-10-23T07:18:14.683Z,10.70
2022-10-23T07:20:42.119Z,10.70
2022-10-23T07:23:11.459Z,10.80
2022-10-23T07:25:38.266Z,10.80
2022-10-23T07:28:05.486Z,10.80
2022-10-23T07:30:32.676Z,10.80
2022-10-23T07:32:59.748Z,10.80
2022-10-23T07:35:26.616Z,10.90
2022-10-23T07:37:53.359Z,11.00
2022-10-23T07:40:20.319Z,11.00
2022-10-23T07:42:47.222Z,11.00
2022-10-23T07:45:14.143Z,11.00
2022-10-23T07:47:41.270Z,11.00
2022-10-23T07:50:09.106Z,11.00
2022-10-23T07:52:36.440Z,11.00
2022-10-23T07:55:03.607Z,11.10
2022-10-23T07:57:30.569Z,11.10
2022-10-23T07:59:57.417Z,11.20
2022-10-23T08:02:24.200Z,11.20
2022-10-23T08:04:51.349Z,11.30
2022-10-23T08:07:18.829Z,11.30
2022-10-23T08:09:45.686Z,11.30
2022-10-23T08:12:12.655Z,11.40
2022-10-23T08:14:39.960Z,11.40
2022-10-23T08:17:09.906Z,11.50
2022-10-23T08:19:37.208Z,11.50
2022-10-23T08:22:04.089Z,11.50
2022-10-23T08:24:30.997Z,11.60
2022-10-23T08:26:58.751Z,11.60
2022-10-23T08:29:26.078Z,11.60
2022-10-23T08:31:57.436Z,11.70
2022-10-23T08:34:24.427Z,11.70
2022-10-23T08:36:51.349Z,11.70
2022-10-23T08:39:18.189Z,11.80
2022-10-23T08:41:51.156Z,11.90
2022-10-23T08:44:45.963Z,12.00
2022-10-23T08:47:24.191Z,12.00
2022-10-23T08:49:56.943Z,12.10
2022-10-23T08:52:36.479Z,12.00
2022-10-23T08:55:21.761Z,12.10
2022-10-23T08:58:15.184Z,12.20
2022-10-23T09:00:43.336Z,12.30
2022-10-23T09:03:12.668Z,12.40
2022-10-23T09:05:50.467Z,12.40
2022-10-23T09:08:56.931Z,12.50
2022-10-23T09:11:32.917Z,12.50
2022-10-23T09:14:41.491Z,12.60
2022-10-23T09:17:22.979Z,12.70
2022-10-23T09:19:59.143Z,12.70
2022-10-23T09:22:27.222Z,12.80
2022-10-23T09:24:54.083Z,12.80
2022-10-23T09:27:21.082Z,12.90
2022-10-23T09:29:53.694Z,13.00
2022-10-23T09:32:32.564Z,13.00
2022-10-23T09:34:59.382Z,13.00
2022-10-23T09:37:29.491Z,13.10
2022-10-23T09:40:35.973Z,13.10
2022-10-23T09:43:14.603Z,13.20
2022-10-23T09:45:42.587Z,13.20
2022-10-23T09:48:16.976Z,13.40
2022-10-23T09:50:55.749Z,13.30
2022-10-23T09:53:32.509Z,13.30
2022-10-23T09:56:07.897Z,13.40
2022-10-23T09:58:43.203Z,13.50
2022-10-23T10:01:27.129Z,13.50
2022-10-23T10:03:54.492Z,13.60
2022-10-23T10:06:27.146Z,13.70
2022-10-23T10:08:57.754Z,13.70
2022-10-23T10:11:44.252Z,13.80
2022-10-23T10:14:10.968Z,13.90
2022-10-23T10:16:56.525Z,14.00
2022-10-23T10:19:48.648Z,14.00
2022-10-23T10:22:34.277Z,14.10
2022-10-23T10:25:04.239Z,14.20
2022-10-23T10:28:12.839Z,14.20
2022-10-23T10:30:45.460Z,14.30
2022-10-23T10:33:22.847Z,14.40
2022-10-23T10:35:57.689Z,14.40
2022-10-23T10:38:30.385Z,14.50
2022-10-23T10:41:20.742Z,14.50
2022-10-23T10:43:57.867Z,14.60
2022-10-23T10:46:49.066Z,14.70
2022-10-23T10:49:41.879Z,14.70
2022-10-23T10:52:27.116Z,14.70
2022-10-23T10:55:21.811Z,14.70
2022-10-23T10:58:15.949Z,14.80
2022-10-23T11:00:45.326Z,14.80
2022-10-23T11:03:37.627Z,14.90
2022-10-23T11:06:13.150Z,14.90
2022-10-23T11:08:56.211Z,14.90
2022-10-23T11:11:34.951Z,14.90
2022-10-23T11:14:02.548Z,14.90
2022-10-23T11:16:37.460Z,14.90
2022-10-23T11:19:28.838Z,15.00
2022-10-23T11:22:33.207Z,15.00
2022-10-23T11:25:02.912Z,15.00
2022-10-23T11:27:32.795Z,15.00
2022-10-23T11:30:21.159Z,15.00
2022-10-23T11:33:25.961Z,15.00
2022-10-23T11:36:06.048Z,15.00
2022-10-23T11:38:38.180Z,15.00
2022-10-23T11:41:18.973Z,14.90
2022-10-23T11:43:55.464Z,15.00
2022-10-23T11:46:22.184Z,15.00
2022-10-23T11:48:49.838Z,15.10
2022-10-23T11:51:40.190Z,15.10
2022-10-23T11:54:16.827Z,15.10
2022-10-23T11:57:10.593Z,15.20
2022-10-23T11:59:49.592Z,15.30
2022-10-23T12:02:32.139Z,15.30
2022-10-23T12:05:04.326Z,15.30
2022-10-23T12:07:40.204Z,15.40
2022-10-23T12:10:19.465Z,15.40
2022-10-23T12:12:59.590Z,15.50
2022-10-23T12:15:27.061Z,15.50
2022-10-23T12:18:07.442Z,15.50
2022-10-23T12:20:47.280Z,15.50
2022-10-23T12:23:48.069Z,15.50
2022-10-23T12:26:24.409Z,15.50
2022-10-23T12:29:24.849Z,15.60
2022-10-23T12:32:17.072Z,15.60
2022-10-23T12:35:33.586Z,15.60
2022-10-23T12:38:05.195Z,15.60
2022-10-23T12:40:32.202Z,15.70
2022-10-23T12:43:00.430Z,15.80
2022-10-23T12:45:35.676Z,15.80
2022-10-23T12:48:02.546Z,15.80
2022-10-23T12:50:30.986Z,15.90
2022-10-23T12:53:03.489Z,15.90
2022-10-23T12:58:32.699Z,15.80
2022-10-23T13:01:02.670Z,15.90
2022-10-23T13:03:31.700Z,15.80
2022-10-23T13:05:59.890Z,15.80
2022-10-23T13:08:48.206Z,15.80
2022-10-23T13:11:18.087Z,15.80
2022-10-23T13:13:45.144Z,15.80
2022-10-23T13:16:22.945Z,15.80
2022-10-23T13:18:50.004Z,15.80
2022-10-23T13:21:27.183Z,15.80
2022-10-23T13:23:54.373Z,15.80
2022-10-23T13:26:42.772Z,15.80
2022-10-23T13:29:31.405Z,15.80
2022-10-23T13:32:09.487Z,15.90
2022-10-23T13:34:36.297Z,16.00
2022-10-23T13:37:23.385Z,16.00
2022-10-23T13:40:01.918Z,16.10
2022-10-23T13:42:29.008Z,16.10
2022-10-23T13:44:55.958Z,16.10
2022-10-23T13:47:22.957Z,16.10
2022-10-23T13:49:49.867Z,16.10
2022-10-23T13:52:22.093Z,16.10
2022-10-23T13:54:49.943Z,16.10
2022-10-23T13:57:16.889Z,16.10
2022-10-23T13:59:43.767Z,16.00
2022-10-23T14:02:21.947Z,16.00
2022-10-23T14:04:50.257Z,16.00
2022-10-23T14:07:17.121Z,16.00
2022-10-23T14:09:44.549Z,16.00
2022-10-23T14:12:12.379Z,16.00
2022-10-23T14:14:39.387Z,16.00
2022-10-23T14:17:06.190Z,16.00
2022-10-23T14:22:03.948Z,15.90
2022-10-23T14:24:30.799Z,15.90
2022-10-23T14:26:57.707Z,15.90
2022-10-23T14:29:24.710Z,15.90
2022-10-23T14:31:51.892Z,15.90
2022-10-23T14:34:18.751Z,15.90
2022-10-23T14:36:56.492Z,15.90
2022-10-23T14:39:23.735Z,15.90
2022-10-23T14:41:50.676Z,15.90
2022-10-23T14:44:17.592Z,15.90
2022-10-23T14:46:44.483Z,15.80
2022-10-23T14:49:11.369Z,15.90
2022-10-23T14:51:38.361Z,15.80
2022-10-23T14:54:07.113Z,15.80
2022-10-23T14:56:37.540Z,15.90
2022-10-23T14:59:04.810Z,15.90
2022-10-23T15:01:41.243Z,15.80
2022-10-23T15:04:11.942Z,15.80
2022-10-23T15:06:38.892Z,15.90
2022-10-23T15:09:05.892Z,15.90
2022-10-23T15:11:32.938Z,15.80
2022-10-23T15:14:00.599Z,15.80
2022-10-23T15:16:27.952Z,15.90
2022-10-23T15:18:54.943Z,15.90
2022-10-23T15:21:21.886Z,15.80
2022-10-23T15:23:49.144Z,15.80
2022-10-23T15:26:21.582Z,15.80
2022-10-23T15:28:56.729Z,15.70
2022-10-23T15:31:30.426Z,15.70
2022-10-23T15:33:58.194Z,15.70
2022-10-23T15:36:25.448Z,15.70
2022-10-23T15:38:52.623Z,15.70
2022-10-23T15:41:32.538Z,15.70
2022-10-23T15:44:00.547Z,15.70
2022-10-23T15:46:27.561Z,15.60
2022-10-23T15:48:54.672Z,15.60
2022-10-23T15:51:22.164Z,15.60
2022-10-23T15:53:49.230Z,15.60
2022-10-23T15:56:16.063Z,15.50
2022-10-23T15:58:43.141Z,15.60
2022-10-23T16:01:10.130Z,15.50
2022-10-23T16:03:38.354Z,15.50
2022-10-23T16:06:08.347Z,15.50
2022-10-23T16:08:35.954Z,15.40
2022-10-23T16:11:03.560Z,15.40
2022-10-23T16:13:30.499Z,15.40
2022-10-23T16:15:57.976Z,15.30
2022-10-23T16:18:24.777Z,15.30
2022-10-23T16:20:54.938Z,15.30
2022-10-23T16:23:22.124Z,15.30
2022-10-23T16:25:49.129Z,15.30
2022-10-23T16:28:15.946Z,15.30
2022-10-23T16:30:43.929Z,15.30
2022-10-23T16:33:10.799Z,15.30
2022-10-23T16:35:37.977Z,15.20
2022-10-23T16:38:05.096Z,15.20
2022-10-23T16:40:32.037Z,15.20
2022-10-23T16:42:59.144Z,15.10
2022-10-23T16:45:26.005Z,15.10
2022-10-23T16:47:52.833Z,15.10
2022-10-23T16:50:19.757Z,15.10
2022-10-23T16:52:48.283Z,15.10
2022-10-23T16:55:16.805Z,15.10
2022-10-23T16:57:43.650Z,15.10
2022-10-23T17:00:11.037Z,15.10
2022-10-23T17:02:38.331Z,15.10
2022-10-23T17:05:05.687Z,15.10
2022-10-23T17:07:32.680Z,15.10
2022-10-23T17:09:59.537Z,15.10
2022-10-23T17:12:26.399Z,15.10
2022-10-23T17:14:53.220Z,15.10
2022-10-23T17:17:20.155Z,15.10
2022-10-23T17:19:47.179Z,15.10
2022-10-23T17:22:14.857Z,15.10
2022-10-23T17:24:44.198Z,15.10
2022-10-23T17:27:13.271Z,15.10
2022-10-23T17:29:40.163Z,15.20
2022-10-23T17:32:07.232Z,15.20
2022-10-23T17:34:34.143Z,15.20
2022-10-23T17:37:01.754Z,15.20
2022-10-23T17:39:29.915Z,15.20
2022-10-23T17:41:57.261Z,15.30
2022-10-23T17:44:24.239Z,15.30
2022-10-23T17:46:54.836Z,15.30
2022-10-23T17:49:22.155Z,15.30
2022-10-23T17:51:55.404Z,15.40
2022-10-23T17:54:23.514Z,15.40
2022-10-23T17:56:50.426Z,15.40
2022-10-23T17:59:19.585Z,15.50
2022-10-23T18:01:48.131Z,15.50
2022-10-23T18:04:16.921Z,15.50
2022-10-23T18:06:46.559Z,15.50
2022-10-23T18:09:13.665Z,15.60
2022-10-23T18:11:46.812Z,15.50
2022-10-23T18:14:19.286Z,15.60
2022-10-23T18:16:46.341Z,15.70
2022-10-23T18:19:18.200Z,15.70
2022-10-23T18:21:46.477Z,15.70
2022-10-23T18:24:13.434Z,15.70
2022-10-23T18:26:41.757Z,15.80
2022-10-23T18:29:10.740Z,15.80
2022-10-23T18:31:38.367Z,15.80
2022-10-23T18:34:18.011Z,15.80
2022-10-23T18:36:44.977Z,15.80
2022-10-23T18:39:15.917Z,15.80
2022-10-23T18:41:45.257Z,15.80
2022-10-23T18:44:17.344Z,15.80
2022-10-23T18:46:45.260Z,15.90
2022-10-23T18:49:12.483Z,15.80
2022-10-23T18:51:39.514Z,15.90
2022-10-23T18:54:10.779Z,15.80
2022-10-23T18:56:39.144Z,15.80
2022-10-23T18:59:10.510Z,15.80
2022-10-23T19:01:37.568Z,15.90
2022-10-23T19:04:06.063Z,15.90
2022-10-23T19:06:34.956Z,15.90
2022-10-23T19:09:02.037Z,15.80
2022-10-23T19:11:29.075Z,15.80
2022-10-23T19:13:56.098Z,15.80
2022-10-23T19:16:30.791Z,15.70
2022-10-23T19:19:05.444Z,15.80
2022-10-23T19:21:36.834Z,15.80
2022-10-23T19:24:11.145Z,15.70
2022-10-23T19:26:40.278Z,15.70
2022-10-23T19:29:09.843Z,15.70
2022-10-23T19:31:36.797Z,15.70
2022-10-23T19:34:04.080Z,15.80
2022-10-23T19:36:32.039Z,15.80
2022-10-23T19:38:58.875Z,15.80
2022-10-23T19:41:25.797Z,15.80
2022-10-23T19:43:52.772Z,15.80
2022-10-23T19:46:19.714Z,15.80
2022-10-23T19:48:46.834Z,15.80
2022-10-23T19:51:13.954Z,15.80
2022-10-23T19:53:42.578Z,15.80
2022-10-23T19:56:11.305Z,15.90
2022-10-23T19:58:38.809Z,15.90
2022-10-23T20:01:17.986Z,15.80
2022-10-23T20:03:45.876Z,15.80
2022-10-23T20:06:14.878Z,15.90
2022-10-23T20:08:42.166Z,15.90
2022-10-23T20:11:09.769Z,15.90
2022-10-23T20:13:36.583Z,15.90
2022-10-23T20:16:03.484Z,15.90
2022-10-23T20:18:30.338Z,16.00
2022-10-23T20:20:57.205Z,15.90
2022-10-23T20:23:24.104Z,15.90
2022-10-23T20:25:50.931Z,15.90
2022-10-23T20:28:17.776Z,16.00
2022-10-23T20:30:46.011Z,15.90
2022-10-23T20:33:12.932Z,15.80
2022-10-23T20:35:43.636Z,15.80
2022-10-23T20:38:10.572Z,15.80
2022-10-23T20:40:37.973Z,15.80
2022-10-23T20:43:05.000Z,15.80
2022-10-23T20:45:31.957Z,15.90
2022-10-23T20:47:59.116Z,15.90
2022-10-23T20:50:25.998Z,15.90
2022-10-23T20:52:52.817Z,15.90
2022-10-23T20:55:20.140Z,15.90
2022-10-23T20:57:47.262Z,15.80
2022-10-23T21:00:15.270Z,15.70
2022-10-23T21:02:43.842Z,15.60
2022-10-23T21:05:12.472Z,15.60
2022-10-23T21:07:39.244Z,15.60
2022-10-23T21:10:06.593Z,15.50
2022-10-23T21:12:33.393Z,15.50
2022-10-23T21:15:00.186Z,15.50
2022-10-23T21:17:27.196Z,15.50
2022-10-23T21:19:54.048Z,15.40
2022-10-23T21:22:20.816Z,15.40
2022-10-23T21:24:47.780Z,15.30
2022-10-23T21:27:15.225Z,15.30
2022-10-23T21:29:42.123Z,15.30
2022-10-23T21:32:09.020Z,15.30
2022-10-23T21:34:35.912Z,15.30
2022-10-23T21:37:13.343Z,15.30
2022-10-23T21:39:44.424Z,15.30
2022-10-23T21:42:12.828Z,15.30
2022-10-23T21:44:39.692Z,15.30
2022-10-23T21:47:07.004Z,15.30
2022-10-23T21:49:33.810Z,15.30
2022-10-23T21:52:00.673Z,15.30
2022-10-23T21:54:27.538Z,15.30
2022-10-23T21:56:54.792Z,15.30
2022-10-23T21:59:25.788Z,15.30
2022-10-23T22:01:54.821Z,15.30
2022-10-23T22:04:22.616Z,15.30
2022-10-23T22:06:50.104Z,15.40
2022-10-23T22:09:19.712Z,15.40
2022-10-23T22:11:50.921Z,15.40
2022-10-23T22:14:18.458Z,15.40
2022-10-23T22:16:45.674Z,15.40
2022-10-23T22:19:14.438Z,15.40
2022-10-23T22:21:41.909Z,15.40
2022-10-23T22:24:09.777Z,15.40
2022-10-23T22:26:42.887Z,15.40
2022-10-23T22:29:11.023Z,15.40
2022-10-23T22:31:39.569Z,15.30
2022-10-23T22:34:18.943Z,15.30
2022-10-23T22:36:56.208Z,15.40
2022-10-23T22:39:23.744Z,15.30
2022-10-23T22:41:50.835Z,15.30
2022-10-23T22:44:18.017Z,15.40
2022-10-23T22:46:44.913Z,15.30
2022-10-23T22:49:11.717Z,15.30
2022-10-23T22:51:39.673Z,15.30
2022-10-23T22:54:07.175Z,15.30
2022-10-23T22:56:34.275Z,15.20
2022-10-23T22:59:01.118Z,15.20
2022-10-23T23:01:35.363Z,15.20
2022-10-23T23:04:13.745Z,15.20
2022-10-23T23:06:49.100Z,15.30
2022-10-23T23:09:18.061Z,15.30
2022-10-23T23:11:51.642Z,15.30
2022-10-23T23:14:23.094Z,15.30
2022-10-23T23:16:54.492Z,15.30
2022-10-23T23:19:23.224Z,15.30
2022-10-23T23:21:50.563Z,15.20
2022-10-23T23:24:17.518Z,15.30
2022-10-23T23:26:44.271Z,15.40
2022-10-23T23:29:11.371Z,15.40
2022-10-23T23:31:38.176Z,15.40
2022-10-23T23:34:05.000Z,15.40
2022-10-23T23:36:32.602Z,15.40
2022-10-23T23:38:59.469Z,15.50
2022-10-23T23:41:27.792Z,15.60
2022-10-23T23:43:56.551Z,15.60
2022-10-23T23:46:24.203Z,15.50
2022-10-23T23:48:50.951Z,15.40
2022-10-23T23:51:20.624Z,15.40
2022-10-23T23:53:48.557Z,15.40
2022-10-23T23:56:15.675Z,15.40
2022-10-23T23:58:42.525Z,15.40
